sensor_id;sensor_type;location;lat;lon;timestamp;P1;durP1;ratioP1;P2;durP2;ratioP2
27031;SDS011;14580;52.918;9.214;2023-04-15T00:01:57;5.43;;;3.93;;
27031;SDS011;14580;52.918;9.214;2023-04-15T00:05:23;5.93;;;3.80;;
27031;SDS011;14580;52.918;9.214;2023-04-15T00:08:48;4.70;;;3.73;;
27031;SDS011;14580;52.918;9.214;2023-04-15T00:12:13;7.33;;;4.73;;
27031;SDS011;14580;52.918;9.214;2023-04-15T00:15:37;5.87;;;4.43;;
27031;SDS011;14580;52.918;9.214;2023-04-15T00:19:03;8.17;;;4.70;;
27031;SDS011;14580;52.918;9.214;2023-04-15T00:22:30;7.23;;;4.70;;
27031;SDS011;14580;52.918;9.214;2023-04-15T00:25:55;7.83;;;4.93;;
27031;SDS011;14580;52.918;9.214;2023-04-15T00:29:21;6.97;;;5.10;;
27031;SDS011;14580;52.918;9.214;2023-04-15T00:32:47;7.03;;;4.87;;
27031;SDS011;14580;52.918;9.214;2023-04-15T00:36:13;6.67;;;4.70;;
27031;SDS011;14580;52.918;9.214;2023-04-15T00:39:39;6.00;;;4.73;;
27031;SDS011;14580;52.918;9.214;2023-04-15T00:43:03;6.20;;;4.77;;
27031;SDS011;14580;52.918;9.214;2023-04-15T00:46:28;7.17;;;5.53;;
27031;SDS011;14580;52.918;9.214;2023-04-15T00:50:04;7.80;;;5.47;;
27031;SDS011;14580;52.918;9.214;2023-04-15T00:53:29;7.20;;;5.17;;
27031;SDS011;14580;52.918;9.214;2023-04-15T00:56:54;8.00;;;5.67;;
27031;SDS011;14580;52.918;9.214;2023-04-15T01:00:19;8.90;;;5.77;;
27031;SDS011;14580;52.918;9.214;2023-04-15T01:03:49;9.07;;;6.30;;
27031;SDS011;14580;52.918;9.214;2023-04-15T01:07:14;9.27;;;6.13;;
27031;SDS011;14580;52.918;9.214;2023-04-15T01:10:40;11.03;;;6.53;;
27031;SDS011;14580;52.918;9.214;2023-04-15T01:14:05;11.43;;;6.83;;
27031;SDS011;14580;52.918;9.214;2023-04-15T01:17:41;9.10;;;6.33;;
27031;SDS011;14580;52.918;9.214;2023-04-15T01:21:06;10.77;;;6.60;;
27031;SDS011;14580;52.918;9.214;2023-04-15T01:24:31;10.90;;;7.07;;
27031;SDS011;14580;52.918;9.214;2023-04-15T01:27:57;12.47;;;7.73;;
27031;SDS011;14580;52.918;9.214;2023-04-15T01:31:22;10.07;;;7.30;;
27031;SDS011;14580;52.918;9.214;2023-04-15T01:34:47;11.70;;;7.60;;
27031;SDS011;14580;52.918;9.214;2023-04-15T01:38:12;12.20;;;8.07;;
27031;SDS011;14580;52.918;9.214;2023-04-15T01:41:37;12.20;;;7.47;;
27031;SDS011;14580;52.918;9.214;2023-04-15T01:45:02;14.10;;;8.67;;
27031;SDS011;14580;52.918;9.214;2023-04-15T01:48:27;11.57;;;7.40;;
27031;SDS011;14580;52.918;9.214;2023-04-15T01:51:52;10.23;;;6.70;;
27031;SDS011;14580;52.918;9.214;2023-04-15T01:55:17;14.13;;;8.63;;
27031;SDS011;14580;52.918;9.214;2023-04-15T01:58:42;11.93;;;7.90;;
27031;SDS011;14580;52.918;9.214;2023-04-15T02:02:07;11.47;;;8.03;;
27031;SDS011;14580;52.918;9.214;2023-04-15T02:05:32;14.17;;;8.03;;
27031;SDS011;14580;52.918;9.214;2023-04-15T02:08:57;11.70;;;7.57;;
27031;SDS011;14580;52.918;9.214;2023-04-15T02:12:22;10.70;;;7.93;;
27031;SDS011;14580;52.918;9.214;2023-04-15T02:15:47;10.43;;;7.13;;
27031;SDS011;14580;52.918;9.214;2023-04-15T02:19:12;14.60;;;8.60;;
27031;SDS011;14580;52.918;9.214;2023-04-15T02:22:37;12.20;;;7.03;;
27031;SDS011;14580;52.918;9.214;2023-04-15T02:26:02;13.40;;;8.03;;
27031;SDS011;14580;52.918;9.214;2023-04-15T02:29:27;10.73;;;6.67;;
27031;SDS011;14580;52.918;9.214;2023-04-15T02:32:52;11.97;;;7.40;;
27031;SDS011;14580;52.918;9.214;2023-04-15T02:36:17;9.70;;;6.60;;
27031;SDS011;14580;52.918;9.214;2023-04-15T02:39:43;11.43;;;7.73;;
27031;SDS011;14580;52.918;9.214;2023-04-15T02:43:07;10.80;;;7.40;;
27031;SDS011;14580;52.918;9.214;2023-04-15T02:46:33;11.73;;;7.77;;
27031;SDS011;14580;52.918;9.214;2023-04-15T02:49:59;11.47;;;7.77;;
27031;SDS011;14580;52.918;9.214;2023-04-15T02:53:38;10.43;;;7.17;;
27031;SDS011;14580;52.918;9.214;2023-04-15T02:57:02;10.37;;;7.10;;
27031;SDS011;14580;52.918;9.214;2023-04-15T03:00:27;12.07;;;7.90;;
27031;SDS011;14580;52.918;9.214;2023-04-15T03:03:52;11.83;;;7.63;;
27031;SDS011;14580;52.918;9.214;2023-04-15T03:07:16;12.87;;;7.60;;
27031;SDS011;14580;52.918;9.214;2023-04-15T03:10:41;10.33;;;7.17;;
27031;SDS011;14580;52.918;9.214;2023-04-15T03:14:06;12.10;;;7.80;;
27031;SDS011;14580;52.918;9.214;2023-04-15T03:17:31;11.13;;;7.47;;
27031;SDS011;14580;52.918;9.214;2023-04-15T03:20:55;9.00;;;6.73;;
27031;SDS011;14580;52.918;9.214;2023-04-15T03:24:20;14.13;;;7.50;;
27031;SDS011;14580;52.918;9.214;2023-04-15T03:27:45;12.33;;;7.73;;
27031;SDS011;14580;52.918;9.214;2023-04-15T03:31:10;12.03;;;7.93;;
27031;SDS011;14580;52.918;9.214;2023-04-15T03:34:35;11.40;;;7.23;;
27031;SDS011;14580;52.918;9.214;2023-04-15T03:38:00;10.13;;;6.53;;
27031;SDS011;14580;52.918;9.214;2023-04-15T03:41:26;10.20;;;6.17;;
27031;SDS011;14580;52.918;9.214;2023-04-15T03:44:51;10.43;;;6.77;;
27031;SDS011;14580;52.918;9.214;2023-04-15T03:48:15;9.20;;;6.73;;
27031;SDS011;14580;52.918;9.214;2023-04-15T03:51:40;11.80;;;7.23;;
27031;SDS011;14580;52.918;9.214;2023-04-15T03:55:05;10.60;;;6.93;;
27031;SDS011;14580;52.918;9.214;2023-04-15T03:58:30;10.90;;;6.10;;
27031;SDS011;14580;52.918;9.214;2023-04-15T04:01:55;10.20;;;6.77;;
27031;SDS011;14580;52.918;9.214;2023-04-15T04:05:20;12.83;;;7.10;;
27031;SDS011;14580;52.918;9.214;2023-04-15T04:08:45;10.33;;;6.27;;
27031;SDS011;14580;52.918;9.214;2023-04-15T04:12:09;10.63;;;6.33;;
27031;SDS011;14580;52.918;9.214;2023-04-15T04:15:34;10.77;;;6.63;;
27031;SDS011;14580;52.918;9.214;2023-04-15T04:18:59;10.33;;;7.33;;
27031;SDS011;14580;52.918;9.214;2023-04-15T04:22:23;9.77;;;6.60;;
27031;SDS011;14580;52.918;9.214;2023-04-15T04:25:48;10.10;;;5.80;;
27031;SDS011;14580;52.918;9.214;2023-04-15T04:29:13;9.00;;;6.03;;
27031;SDS011;14580;52.918;9.214;2023-04-15T04:32:38;9.23;;;6.43;;
27031;SDS011;14580;52.918;9.214;2023-04-15T04:36:03;11.20;;;6.90;;
27031;SDS011;14580;52.918;9.214;2023-04-15T04:39:28;10.47;;;7.10;;
27031;SDS011;14580;52.918;9.214;2023-04-15T04:42:52;12.17;;;7.77;;
27031;SDS011;14580;52.918;9.214;2023-04-15T04:46:17;9.90;;;6.57;;
27031;SDS011;14580;52.918;9.214;2023-04-15T04:49:42;11.33;;;6.27;;
27031;SDS011;14580;52.918;9.214;2023-04-15T04:53:06;10.93;;;7.40;;
27031;SDS011;14580;52.918;9.214;2023-04-15T04:56:31;11.10;;;7.67;;
27031;SDS011;14580;52.918;9.214;2023-04-15T04:59:56;10.80;;;7.30;;
27031;SDS011;14580;52.918;9.214;2023-04-15T05:03:21;11.10;;;8.20;;
27031;SDS011;14580;52.918;9.214;2023-04-15T05:06:45;12.03;;;8.53;;
27031;SDS011;14580;52.918;9.214;2023-04-15T05:10:10;10.67;;;7.57;;
27031;SDS011;14580;52.918;9.214;2023-04-15T05:13:34;11.53;;;7.83;;
27031;SDS011;14580;52.918;9.214;2023-04-15T05:16:59;13.23;;;8.20;;
27031;SDS011;14580;52.918;9.214;2023-04-15T05:20:23;13.53;;;8.40;;
27031;SDS011;14580;52.918;9.214;2023-04-15T05:23:50;13.77;;;8.90;;
27031;SDS011;14580;52.918;9.214;2023-04-15T05:27:14;13.93;;;8.07;;
27031;SDS011;14580;52.918;9.214;2023-04-15T05:30:39;13.07;;;8.87;;
27031;SDS011;14580;52.918;9.214;2023-04-15T05:34:04;11.30;;;7.90;;
27031;SDS011;14580;52.918;9.214;2023-04-15T05:37:29;10.97;;;7.33;;
27031;SDS011;14580;52.918;9.214;2023-04-15T05:40:54;12.00;;;7.23;;
27031;SDS011;14580;52.918;9.214;2023-04-15T05:44:18;9.60;;;6.73;;
27031;SDS011;14580;52.918;9.214;2023-04-15T05:47:43;12.53;;;7.50;;
27031;SDS011;14580;52.918;9.214;2023-04-15T05:51:07;8.63;;;7.00;;
27031;SDS011;14580;52.918;9.214;2023-04-15T05:54:32;9.57;;;7.20;;
27031;SDS011;14580;52.918;9.214;2023-04-15T05:57:57;9.83;;;6.33;;
27031;SDS011;14580;52.918;9.214;2023-04-15T06:01:22;11.53;;;6.67;;
27031;SDS011;14580;52.918;9.214;2023-04-15T06:04:46;6.83;;;5.37;;
27031;SDS011;14580;52.918;9.214;2023-04-15T06:08:11;9.73;;;6.47;;
27031;SDS011;14580;52.918;9.214;2023-04-15T06:11:36;9.53;;;6.27;;
27031;SDS011;14580;52.918;9.214;2023-04-15T06:15:01;9.10;;;6.17;;
27031;SDS011;14580;52.918;9.214;2023-04-15T06:18:25;8.03;;;5.90;;
27031;SDS011;14580;52.918;9.214;2023-04-15T06:21:50;7.23;;;5.67;;
27031;SDS011;14580;52.918;9.214;2023-04-15T06:25:15;10.63;;;5.73;;
27031;SDS011;14580;52.918;9.214;2023-04-15T06:28:40;9.77;;;6.30;;
27031;SDS011;14580;52.918;9.214;2023-04-15T06:32:05;8.90;;;5.97;;
27031;SDS011;14580;52.918;9.214;2023-04-15T06:35:30;8.60;;;5.90;;
27031;SDS011;14580;52.918;9.214;2023-04-15T06:38:56;7.33;;;5.60;;
27031;SDS011;14580;52.918;9.214;2023-04-15T06:42:21;8.40;;;6.07;;
27031;SDS011;14580;52.918;9.214;2023-04-15T06:45:46;7.13;;;5.43;;
27031;SDS011;14580;52.918;9.214;2023-04-15T06:49:10;10.30;;;6.50;;
27031;SDS011;14580;52.918;9.214;2023-04-15T06:52:35;7.17;;;5.23;;
27031;SDS011;14580;52.918;9.214;2023-04-15T06:56:05;8.77;;;5.77;;
27031;SDS011;14580;52.918;9.214;2023-04-15T06:59:31;6.23;;;5.07;;
27031;SDS011;14580;52.918;9.214;2023-04-15T07:02:57;7.97;;;6.30;;
27031;SDS011;14580;52.918;9.214;2023-04-15T07:06:23;7.83;;;5.57;;
27031;SDS011;14580;52.918;9.214;2023-04-15T07:09:47;8.30;;;6.00;;
27031;SDS011;14580;52.918;9.214;2023-04-15T07:13:12;7.13;;;4.90;;
27031;SDS011;14580;52.918;9.214;2023-04-15T07:16:37;6.97;;;4.93;;
27031;SDS011;14580;52.918;9.214;2023-04-15T07:20:02;9.67;;;5.40;;
27031;SDS011;14580;52.918;9.214;2023-04-15T07:23:27;6.93;;;5.07;;
27031;SDS011;14580;52.918;9.214;2023-04-15T07:26:53;6.07;;;4.23;;
27031;SDS011;14580;52.918;9.214;2023-04-15T07:30:18;5.63;;;4.07;;
27031;SDS011;14580;52.918;9.214;2023-04-15T07:33:43;6.63;;;5.43;;
27031;SDS011;14580;52.918;9.214;2023-04-15T07:37:08;8.40;;;4.53;;
27031;SDS011;14580;52.918;9.214;2023-04-15T07:40:33;6.67;;;4.03;;
27031;SDS011;14580;52.918;9.214;2023-04-15T07:43:57;4.43;;;3.30;;
27031;SDS011;14580;52.918;9.214;2023-04-15T07:47:25;4.90;;;3.80;;
27031;SDS011;14580;52.918;9.214;2023-04-15T07:50:49;6.83;;;3.83;;
27031;SDS011;14580;52.918;9.214;2023-04-15T07:54:15;4.40;;;3.73;;
27031;SDS011;14580;52.918;9.214;2023-04-15T07:57:43;4.87;;;3.30;;
27031;SDS011;14580;52.918;9.214;2023-04-15T08:01:09;5.03;;;3.20;;
27031;SDS011;14580;52.918;9.214;2023-04-15T08:04:35;3.87;;;3.07;;
27031;SDS011;14580;52.918;9.214;2023-04-15T08:08:00;4.83;;;3.17;;
27031;SDS011;14580;52.918;9.214;2023-04-15T08:11:25;3.53;;;2.67;;
27031;SDS011;14580;52.918;9.214;2023-04-15T08:14:51;4.00;;;3.23;;
27031;SDS011;14580;52.918;9.214;2023-04-15T08:18:17;5.83;;;3.23;;
27031;SDS011;14580;52.918;9.214;2023-04-15T08:21:42;5.23;;;3.40;;
27031;SDS011;14580;52.918;9.214;2023-04-15T08:25:07;3.87;;;3.23;;
27031;SDS011;14580;52.918;9.214;2023-04-15T08:28:32;4.67;;;3.60;;
27031;SDS011;14580;52.918;9.214;2023-04-15T08:32:00;4.03;;;3.47;;
27031;SDS011;14580;52.918;9.214;2023-04-15T08:35:25;5.63;;;4.13;;
27031;SDS011;14580;52.918;9.214;2023-04-15T08:38:51;5.77;;;4.33;;
27031;SDS011;14580;52.918;9.214;2023-04-15T08:42:16;6.10;;;4.50;;
27031;SDS011;14580;52.918;9.214;2023-04-15T08:45:51;4.33;;;3.80;;
27031;SDS011;14580;52.918;9.214;2023-04-15T08:49:17;6.73;;;4.30;;
27031;SDS011;14580;52.918;9.214;2023-04-15T08:52:43;5.10;;;4.13;;
27031;SDS011;14580;52.918;9.214;2023-04-15T08:56:08;11.37;;;5.27;;
27031;SDS011;14580;52.918;9.214;2023-04-15T08:59:35;6.47;;;4.57;;
27031;SDS011;14580;52.918;9.214;2023-04-15T09:03:00;5.53;;;4.40;;
27031;SDS011;14580;52.918;9.214;2023-04-15T09:06:27;6.90;;;4.90;;
27031;SDS011;14580;52.918;9.214;2023-04-15T09:09:51;9.27;;;5.83;;
27031;SDS011;14580;52.918;9.214;2023-04-15T09:13:17;6.50;;;5.00;;
27031;SDS011;14580;52.918;9.214;2023-04-15T09:16:58;9.13;;;5.53;;
27031;SDS011;14580;52.918;9.214;2023-04-15T09:20:23;7.10;;;5.23;;
27031;SDS011;14580;52.918;9.214;2023-04-15T09:23:56;9.80;;;5.73;;
27031;SDS011;14580;52.918;9.214;2023-04-15T09:27:24;7.30;;;5.33;;
27031;SDS011;14580;52.918;9.214;2023-04-15T09:30:57;8.07;;;5.93;;
27031;SDS011;14580;52.918;9.214;2023-04-15T09:34:36;7.07;;;5.83;;
27031;SDS011;14580;52.918;9.214;2023-04-15T09:38:04;8.33;;;6.33;;
27031;SDS011;14580;52.918;9.214;2023-04-15T09:41:30;8.13;;;5.83;;
27031;SDS011;14580;52.918;9.214;2023-04-15T09:44:54;9.30;;;5.90;;
27031;SDS011;14580;52.918;9.214;2023-04-15T09:48:20;9.80;;;7.20;;
27031;SDS011;14580;52.918;9.214;2023-04-15T09:51:47;11.43;;;7.60;;
27031;SDS011;14580;52.918;9.214;2023-04-15T09:55:12;10.87;;;7.70;;
27031;SDS011;14580;52.918;9.214;2023-04-15T09:58:38;10.13;;;8.10;;
27031;SDS011;14580;52.918;9.214;2023-04-15T10:02:03;12.97;;;8.73;;
27031;SDS011;14580;52.918;9.214;2023-04-15T10:05:29;11.80;;;8.73;;
27031;SDS011;14580;52.918;9.214;2023-04-15T10:08:58;12.83;;;8.87;;
27031;SDS011;14580;52.918;9.214;2023-04-15T10:12:24;15.00;;;10.17;;
27031;SDS011;14580;52.918;9.214;2023-04-15T10:19:32;15.77;;;9.67;;
27031;SDS011;14580;52.918;9.214;2023-04-15T10:22:59;13.80;;;9.63;;
27031;SDS011;14580;52.918;9.214;2023-04-15T10:26:26;13.67;;;9.67;;
27031;SDS011;14580;52.918;9.214;2023-04-15T10:29:51;15.20;;;10.00;;
27031;SDS011;14580;52.918;9.214;2023-04-15T10:33:19;15.97;;;10.10;;
27031;SDS011;14580;52.918;9.214;2023-04-15T10:36:46;15.60;;;10.40;;
27031;SDS011;14580;52.918;9.214;2023-04-15T10:40:31;15.87;;;10.10;;
27031;SDS011;14580;52.918;9.214;2023-04-15T10:47:24;16.60;;;10.97;;
27031;SDS011;14580;52.918;9.214;2023-04-15T10:51:22;19.00;;;11.10;;
27031;SDS011;14580;52.918;9.214;2023-04-15T10:54:41;17.00;;;10.57;;
27031;SDS011;14580;52.918;9.214;2023-04-15T10:58:06;16.80;;;11.30;;
27031;SDS011;14580;52.918;9.214;2023-04-15T11:09:32;18.93;;;11.47;;
27031;SDS011;14580;52.918;9.214;2023-04-15T11:13:01;17.03;;;11.10;;
27031;SDS011;14580;52.918;9.214;2023-04-15T11:16:26;18.57;;;12.50;;
27031;SDS011;14580;52.918;9.214;2023-04-15T11:19:53;20.93;;;13.27;;
27031;SDS011;14580;52.918;9.214;2023-04-15T11:23:27;25.33;;;14.23;;
27031;SDS011;14580;52.918;9.214;2023-04-15T11:26:57;20.60;;;13.43;;
27031;SDS011;14580;52.918;9.214;2023-04-15T11:30:24;21.10;;;13.60;;
27031;SDS011;14580;52.918;9.214;2023-04-15T11:33:53;23.03;;;13.63;;
27031;SDS011;14580;52.918;9.214;2023-04-15T11:37:26;22.47;;;14.37;;
27031;SDS011;14580;52.918;9.214;2023-04-15T11:40:52;29.93;;;15.53;;
27031;SDS011;14580;52.918;9.214;2023-04-15T11:44:17;22.13;;;13.93;;
27031;SDS011;14580;52.918;9.214;2023-04-15T11:47:42;26.50;;;14.57;;
27031;SDS011;14580;52.918;9.214;2023-04-15T11:51:07;26.93;;;15.60;;
27031;SDS011;14580;52.918;9.214;2023-04-15T11:54:35;27.70;;;15.87;;
27031;SDS011;14580;52.918;9.214;2023-04-15T11:58:14;31.53;;;18.53;;
27031;SDS011;14580;52.918;9.214;2023-04-15T12:01:43;29.70;;;17.00;;
27031;SDS011;14580;52.918;9.214;2023-04-15T12:05:08;33.03;;;17.30;;
27031;SDS011;14580;52.918;9.214;2023-04-15T12:12:19;32.77;;;18.87;;
27031;SDS011;14580;52.918;9.214;2023-04-15T12:15:43;39.13;;;19.50;;
27031;SDS011;14580;52.918;9.214;2023-04-15T12:19:11;34.87;;;19.23;;
27031;SDS011;14580;52.918;9.214;2023-04-15T12:22:36;34.03;;;19.70;;
27031;SDS011;14580;52.918;9.214;2023-04-15T12:26:05;32.13;;;20.30;;
27031;SDS011;14580;52.918;9.214;2023-04-15T12:29:31;34.73;;;21.20;;
27031;SDS011;14580;52.918;9.214;2023-04-15T12:32:57;38.73;;;21.87;;
27031;SDS011;14580;52.918;9.214;2023-04-15T12:36:22;33.40;;;20.07;;
27031;SDS011;14580;52.918;9.214;2023-04-15T12:39:47;31.53;;;20.57;;
27031;SDS011;14580;52.918;9.214;2023-04-15T12:43:12;37.53;;;20.80;;
27031;SDS011;14580;52.918;9.214;2023-04-15T12:46:37;39.73;;;22.67;;
27031;SDS011;14580;52.918;9.214;2023-04-15T12:50:02;36.63;;;21.30;;
27031;SDS011;14580;52.918;9.214;2023-04-15T12:53:27;37.00;;;22.30;;
27031;SDS011;14580;52.918;9.214;2023-04-15T12:56:52;35.07;;;22.60;;
27031;SDS011;14580;52.918;9.214;2023-04-15T13:00:17;37.50;;;20.87;;
27031;SDS011;14580;52.918;9.214;2023-04-15T13:03:42;39.20;;;22.53;;
27031;SDS011;14580;52.918;9.214;2023-04-15T13:07:07;36.00;;;21.73;;
27031;SDS011;14580;52.918;9.214;2023-04-15T13:10:32;36.90;;;22.00;;
27031;SDS011;14580;52.918;9.214;2023-04-15T13:14:02;34.23;;;21.73;;
27031;SDS011;14580;52.918;9.214;2023-04-15T13:17:29;34.13;;;21.67;;
27031;SDS011;14580;52.918;9.214;2023-04-15T13:20:55;33.07;;;22.20;;
27031;SDS011;14580;52.918;9.214;2023-04-15T13:24:20;35.03;;;22.87;;
27031;SDS011;14580;52.918;9.214;2023-04-15T13:27:44;36.60;;;22.27;;
27031;SDS011;14580;52.918;9.214;2023-04-15T13:31:09;35.07;;;22.17;;
27031;SDS011;14580;52.918;9.214;2023-04-15T13:34:34;36.63;;;22.17;;
27031;SDS011;14580;52.918;9.214;2023-04-15T13:37:59;29.93;;;20.00;;
27031;SDS011;14580;52.918;9.214;2023-04-15T13:41:24;33.73;;;20.87;;
27031;SDS011;14580;52.918;9.214;2023-04-15T13:44:49;35.57;;;21.47;;
27031;SDS011;14580;52.918;9.214;2023-04-15T13:48:14;32.23;;;21.53;;
27031;SDS011;14580;52.918;9.214;2023-04-15T13:51:39;34.30;;;21.83;;
27031;SDS011;14580;52.918;9.214;2023-04-15T13:55:04;44.50;;;25.63;;
27031;SDS011;14580;52.918;9.214;2023-04-15T13:58:30;37.93;;;25.00;;
27031;SDS011;14580;52.918;9.214;2023-04-15T14:01:54;36.00;;;22.97;;
27031;SDS011;14580;52.918;9.214;2023-04-15T14:05:19;34.73;;;23.13;;
27031;SDS011;14580;52.918;9.214;2023-04-15T14:08:44;32.80;;;21.20;;
27031;SDS011;14580;52.918;9.214;2023-04-15T14:12:09;32.70;;;20.17;;
27031;SDS011;14580;52.918;9.214;2023-04-15T14:15:34;28.20;;;20.50;;
27031;SDS011;14580;52.918;9.214;2023-04-15T14:19:00;27.80;;;19.73;;
27031;SDS011;14580;52.918;9.214;2023-04-15T14:22:25;30.90;;;20.40;;
27031;SDS011;14580;52.918;9.214;2023-04-15T14:25:50;29.07;;;20.20;;
27031;SDS011;14580;52.918;9.214;2023-04-15T14:29:15;29.43;;;19.93;;
27031;SDS011;14580;52.918;9.214;2023-04-15T14:32:40;29.07;;;20.43;;
27031;SDS011;14580;52.918;9.214;2023-04-15T14:36:05;33.43;;;21.33;;
27031;SDS011;14580;52.918;9.214;2023-04-15T14:39:30;28.37;;;20.67;;
27031;SDS011;14580;52.918;9.214;2023-04-15T14:42:55;29.00;;;19.57;;
27031;SDS011;14580;52.918;9.214;2023-04-15T14:46:21;36.03;;;20.83;;
27031;SDS011;14580;52.918;9.214;2023-04-15T14:49:45;28.50;;;20.23;;
27031;SDS011;14580;52.918;9.214;2023-04-15T14:53:10;28.63;;;19.90;;
27031;SDS011;14580;52.918;9.214;2023-04-15T14:56:34;32.00;;;19.67;;
27031;SDS011;14580;52.918;9.214;2023-04-15T15:00:00;29.37;;;20.20;;
27031;SDS011;14580;52.918;9.214;2023-04-15T15:03:26;30.27;;;21.40;;
27031;SDS011;14580;52.918;9.214;2023-04-15T15:06:50;29.87;;;20.53;;
27031;SDS011;14580;52.918;9.214;2023-04-15T15:10:15;33.90;;;21.63;;
27031;SDS011;14580;52.918;9.214;2023-04-15T15:13:41;29.60;;;20.70;;
27031;SDS011;14580;52.918;9.214;2023-04-15T15:17:06;28.67;;;20.43;;
27031;SDS011;14580;52.918;9.214;2023-04-15T15:20:30;32.27;;;20.23;;
27031;SDS011;14580;52.918;9.214;2023-04-15T15:23:55;35.17;;;23.07;;
27031;SDS011;14580;52.918;9.214;2023-04-15T15:27:23;28.30;;;20.90;;
27031;SDS011;14580;52.918;9.214;2023-04-15T15:30:47;33.27;;;22.00;;
27031;SDS011;14580;52.918;9.214;2023-04-15T15:34:12;30.03;;;21.03;;
27031;SDS011;14580;52.918;9.214;2023-04-15T15:37:38;28.20;;;20.23;;
27031;SDS011;14580;52.918;9.214;2023-04-15T15:41:05;28.67;;;20.20;;
27031;SDS011;14580;52.918;9.214;2023-04-15T15:44:31;30.40;;;20.50;;
27031;SDS011;14580;52.918;9.214;2023-04-15T15:47:56;24.87;;;18.93;;
27031;SDS011;14580;52.918;9.214;2023-04-15T15:51:21;19.07;;;14.60;;
27031;SDS011;14580;52.918;9.214;2023-04-15T15:54:46;16.00;;;12.30;;
27031;SDS011;14580;52.918;9.214;2023-04-15T15:58:12;12.63;;;9.30;;
27031;SDS011;14580;52.918;9.214;2023-04-15T16:01:37;13.70;;;10.17;;
27031;SDS011;14580;52.918;9.214;2023-04-15T16:05:01;11.50;;;9.13;;
27031;SDS011;14580;52.918;9.214;2023-04-15T16:08:29;12.43;;;9.33;;
27031;SDS011;14580;52.918;9.214;2023-04-15T16:11:54;11.47;;;8.70;;
27031;SDS011;14580;52.918;9.214;2023-04-15T16:15:19;12.83;;;9.20;;
27031;SDS011;14580;52.918;9.214;2023-04-15T16:18:44;11.00;;;9.13;;
27031;SDS011;14580;52.918;9.214;2023-04-15T16:22:09;11.43;;;9.17;;
27031;SDS011;14580;52.918;9.214;2023-04-15T16:25:40;11.73;;;9.50;;
27031;SDS011;14580;52.918;9.214;2023-04-15T16:29:05;10.97;;;9.13;;
27031;SDS011;14580;52.918;9.214;2023-04-15T16:32:31;13.40;;;9.50;;
27031;SDS011;14580;52.918;9.214;2023-04-15T16:35:56;14.50;;;9.40;;
27031;SDS011;14580;52.918;9.214;2023-04-15T16:39:21;13.53;;;9.73;;
27031;SDS011;14580;52.918;9.214;2023-04-15T16:42:46;12.63;;;9.67;;
27031;SDS011;14580;52.918;9.214;2023-04-15T16:46:10;12.37;;;9.47;;
27031;SDS011;14580;52.918;9.214;2023-04-15T16:49:36;10.70;;;8.83;;
27031;SDS011;14580;52.918;9.214;2023-04-15T16:53:01;14.83;;;9.87;;
27031;SDS011;14580;52.918;9.214;2023-04-15T16:56:26;13.30;;;9.97;;
27031;SDS011;14580;52.918;9.214;2023-04-15T16:59:51;10.67;;;9.53;;
27031;SDS011;14580;52.918;9.214;2023-04-15T17:03:16;13.83;;;9.67;;
27031;SDS011;14580;52.918;9.214;2023-04-15T17:06:41;12.67;;;10.40;;
27031;SDS011;14580;52.918;9.214;2023-04-15T17:10:05;11.80;;;9.23;;
27031;SDS011;14580;52.918;9.214;2023-04-15T17:13:31;12.77;;;9.20;;
27031;SDS011;14580;52.918;9.214;2023-04-15T17:16:59;13.73;;;9.90;;
27031;SDS011;14580;52.918;9.214;2023-04-15T17:20:24;11.37;;;9.53;;
27031;SDS011;14580;52.918;9.214;2023-04-15T17:23:50;10.27;;;8.83;;
27031;SDS011;14580;52.918;9.214;2023-04-15T17:27:14;12.23;;;9.87;;
27031;SDS011;14580;52.918;9.214;2023-04-15T17:30:39;11.83;;;9.67;;
27031;SDS011;14580;52.918;9.214;2023-04-15T17:34:06;11.77;;;8.90;;
27031;SDS011;14580;52.918;9.214;2023-04-15T17:37:32;9.60;;;8.60;;
27031;SDS011;14580;52.918;9.214;2023-04-15T17:40:57;12.47;;;8.70;;
27031;SDS011;14580;52.918;9.214;2023-04-15T17:44:21;13.53;;;8.37;;
27031;SDS011;14580;52.918;9.214;2023-04-15T17:47:46;9.83;;;7.80;;
27031;SDS011;14580;52.918;9.214;2023-04-15T17:51:12;10.13;;;8.43;;
27031;SDS011;14580;52.918;9.214;2023-04-15T17:54:36;11.27;;;8.57;;
27031;SDS011;14580;52.918;9.214;2023-04-15T17:58:01;10.97;;;8.90;;
27031;SDS011;14580;52.918;9.214;2023-04-15T18:01:26;8.57;;;7.70;;
27031;SDS011;14580;52.918;9.214;2023-04-15T18:04:51;10.10;;;8.40;;
27031;SDS011;14580;52.918;9.214;2023-04-15T18:08:16;11.37;;;8.37;;
27031;SDS011;14580;52.918;9.214;2023-04-15T18:11:41;11.70;;;9.50;;
27031;SDS011;14580;52.918;9.214;2023-04-15T18:15:06;13.40;;;9.53;;
27031;SDS011;14580;52.918;9.214;2023-04-15T18:18:32;12.23;;;9.37;;
27031;SDS011;14580;52.918;9.214;2023-04-15T18:21:56;12.17;;;9.80;;
27031;SDS011;14580;52.918;9.214;2023-04-15T18:25:21;12.77;;;9.37;;
27031;SDS011;14580;52.918;9.214;2023-04-15T18:28:46;11.83;;;9.70;;
27031;SDS011;14580;52.918;9.214;2023-04-15T18:32:11;12.20;;;10.17;;
27031;SDS011;14580;52.918;9.214;2023-04-15T18:35:36;14.90;;;10.93;;
27031;SDS011;14580;52.918;9.214;2023-04-15T18:39:00;18.60;;;11.77;;
27031;SDS011;14580;52.918;9.214;2023-04-15T18:42:25;15.53;;;11.60;;
27031;SDS011;14580;52.918;9.214;2023-04-15T18:45:50;16.37;;;12.13;;
27031;SDS011;14580;52.918;9.214;2023-04-15T18:49:15;14.77;;;11.27;;
27031;SDS011;14580;52.918;9.214;2023-04-15T18:52:40;18.10;;;12.47;;
27031;SDS011;14580;52.918;9.214;2023-04-15T18:56:05;13.57;;;11.20;;
27031;SDS011;14580;52.918;9.214;2023-04-15T18:59:30;12.03;;;9.93;;
27031;SDS011;14580;52.918;9.214;2023-04-15T19:02:55;12.43;;;9.90;;
27031;SDS011;14580;52.918;9.214;2023-04-15T19:06:20;13.33;;;10.47;;
27031;SDS011;14580;52.918;9.214;2023-04-15T19:09:45;15.37;;;10.70;;
27031;SDS011;14580;52.918;9.214;2023-04-15T19:13:10;13.57;;;10.03;;
27031;SDS011;14580;52.918;9.214;2023-04-15T19:16:34;11.87;;;9.13;;
27031;SDS011;14580;52.918;9.214;2023-04-15T19:19:59;10.13;;;9.00;;
27031;SDS011;14580;52.918;9.214;2023-04-15T19:23:24;10.87;;;9.13;;
27031;SDS011;14580;52.918;9.214;2023-04-15T19:26:49;14.27;;;10.17;;
27031;SDS011;14580;52.918;9.214;2023-04-15T19:30:14;13.63;;;10.20;;
27031;SDS011;14580;52.918;9.214;2023-04-15T19:33:39;13.83;;;10.73;;
27031;SDS011;14580;52.918;9.214;2023-04-15T19:37:04;16.50;;;11.73;;
27031;SDS011;14580;52.918;9.214;2023-04-15T19:40:29;17.57;;;12.47;;
27031;SDS011;14580;52.918;9.214;2023-04-15T19:43:53;15.07;;;12.67;;
27031;SDS011;14580;52.918;9.214;2023-04-15T19:47:18;16.43;;;12.30;;
27031;SDS011;14580;52.918;9.214;2023-04-15T19:50:44;15.80;;;12.30;;
27031;SDS011;14580;52.918;9.214;2023-04-15T19:54:08;18.80;;;12.70;;
27031;SDS011;14580;52.918;9.214;2023-04-15T19:57:33;15.93;;;13.30;;
27031;SDS011;14580;52.918;9.214;2023-04-15T20:00:58;15.00;;;11.93;;
27031;SDS011;14580;52.918;9.214;2023-04-15T20:04:22;15.77;;;12.93;;
27031;SDS011;14580;52.918;9.214;2023-04-15T20:07:47;15.83;;;13.07;;
27031;SDS011;14580;52.918;9.214;2023-04-15T20:11:12;17.30;;;13.30;;
27031;SDS011;14580;52.918;9.214;2023-04-15T20:14:37;16.27;;;11.57;;
27031;SDS011;14580;52.918;9.214;2023-04-15T20:18:01;16.73;;;12.50;;
27031;SDS011;14580;52.918;9.214;2023-04-15T20:21:31;15.33;;;12.57;;
27031;SDS011;14580;52.918;9.214;2023-04-15T20:24:57;17.63;;;12.83;;
27031;SDS011;14580;52.918;9.214;2023-04-15T20:28:22;16.53;;;12.50;;
27031;SDS011;14580;52.918;9.214;2023-04-15T20:31:48;16.63;;;12.97;;
27031;SDS011;14580;52.918;9.214;2023-04-15T20:35:13;15.40;;;12.47;;
27031;SDS011;14580;52.918;9.214;2023-04-15T20:38:38;17.13;;;13.37;;